createdAt,value
2023-05-10T00:00:08.630Z,102061.48
2023-05-10T00:01:34.654Z,102062.79
2023-05-10T00:02:36.190Z,102060.78
2023-05-10T00:03:38.032Z,102061.63
2023-05-10T00:04:39.876Z,102057.88
2023-05-10T00:05:41.631Z,102061.13
2023-05-10T00:06:43.389Z,102061.19
2023-05-10T00:07:47.717Z,102059.20
2023-05-10T00:08:49.200Z,102057.91
2023-05-10T00:09:50.656Z,102058.39
2023-05-10T00:10:53.195Z,102058.35
2023-05-10T00:11:54.783Z,102056.85
2023-05-10T00:12:56.269Z,102058.43
2023-05-10T00:13:57.769Z,102058.77
2023-05-10T00:14:59.381Z,102056.23
2023-05-10T00:16:00.848Z,102058.33
2023-05-10T00:17:02.351Z,102058.64
2023-05-10T00:18:03.929Z,102057.27
2023-05-10T00:19:05.444Z,102063.90
2023-05-10T00:20:07.560Z,102058.98
2023-05-10T00:21:09.162Z,102058.61
2023-05-10T00:22:10.780Z,102057.72
2023-05-10T00:23:12.880Z,102058.67
2023-05-10T00:24:14.290Z,102061.83
2023-05-10T00:25:15.787Z,102061.52
2023-05-10T00:26:17.372Z,102059.48
2023-05-10T00:27:20.047Z,102062.41
2023-05-10T00:28:21.560Z,102056.81
2023-05-10T00:29:22.969Z,102062.20
2023-05-10T00:30:24.660Z,102060.70
2023-05-10T00:31:26.744Z,102062.98
2023-05-10T00:32:28.421Z,102061.80
2023-05-10T00:33:30.986Z,102060.24
2023-05-10T00:34:32.585Z,102060.80
2023-05-10T00:35:34.294Z,102061.74
2023-05-10T00:36:35.823Z,102059.82
2023-05-10T00:37:37.279Z,102058.44
2023-05-10T00:38:38.671Z,102060.27
2023-05-10T00:39:40.131Z,102059.50
2023-05-10T00:40:41.917Z,102057.33
2023-05-10T00:41:47.791Z,102058.67
2023-05-10T00:42:49.155Z,102055.90
2023-05-10T00:43:50.607Z,102059.73
2023-05-10T00:44:52.113Z,102059.55
2023-05-10T00:45:54.399Z,102056.95
2023-05-10T00:46:56.198Z,102055.50
2023-05-10T00:47:57.638Z,102055.90
2023-05-10T00:48:59.664Z,102055.86
2023-05-10T00:50:02.369Z,102053.02
2023-05-10T00:51:04.079Z,102053.52
2023-05-10T00:52:05.708Z,102053.31
2023-05-10T00:53:08.324Z,102052.05
2023-05-10T00:54:12.933Z,102050.21
2023-05-10T00:55:14.404Z,102050.47
2023-05-10T00:56:16.739Z,102052.11
2023-05-10T00:57:18.342Z,102052.15
2023-05-10T00:58:19.992Z,102052.59
2023-05-10T00:59:21.793Z,102050.28
2023-05-10T01:00:23.283Z,102050.27
2023-05-10T01:01:25.734Z,102046.46
2023-05-10T01:02:27.950Z,102049.75
2023-05-10T01:03:29.972Z,102047.54
2023-05-10T01:04:31.725Z,102046.77
2023-05-10T01:05:33.254Z,102047.65
2023-05-10T01:06:34.909Z,102045.35
2023-05-10T01:07:36.481Z,102044.42
2023-05-10T01:08:39.377Z,102043.77
2023-05-10T01:09:40.886Z,102045.76
2023-05-10T01:10:43.503Z,102043.77
2023-05-10T01:11:45.365Z,102044.35
2023-05-10T01:12:48.002Z,102040.64
2023-05-10T01:13:57.512Z,102036.48
2023-05-10T01:15:01.291Z,102041.40
2023-05-10T01:16:03.712Z,102041.50
2023-05-10T01:17:07.079Z,102040.95
2023-05-10T01:18:09.458Z,102043.16
2023-05-10T01:19:20.601Z,102039.52
2023-05-10T01:20:22.366Z,102042.13
2023-05-10T01:21:33.512Z,102043.53
2023-05-10T01:22:59.100Z,102043.46
2023-05-10T01:24:19.903Z,102043.56
2023-05-10T01:25:39.807Z,102039.95
2023-05-10T01:27:18.858Z,102040.05
2023-05-10T01:29:03.054Z,102039.30
2023-05-10T01:32:16.950Z,102039.56
2023-05-10T01:33:57.104Z,102038.32
2023-05-10T01:35:29.408Z,102038.05
2023-05-10T01:36:55.932Z,102036.77
2023-05-10T01:38:09.462Z,102032.37
2023-05-10T01:39:15.652Z,102032.29
2023-05-10T01:40:23.617Z,102032.91
2023-05-10T01:41:46.268Z,102031.14
2023-05-10T01:42:55.866Z,102032.67
2023-05-10T01:44:10.447Z,102029.30
2023-05-10T01:45:20.381Z,102031.73
2023-05-10T01:46:29.251Z,102030.20
2023-05-10T01:47:39.169Z,102031.48
2023-05-10T01:48:48.760Z,102031.92
2023-05-10T01:49:54.849Z,102032.12
2023-05-10T01:50:58.409Z,102034.48
2023-05-10T01:52:09.013Z,102032.98
2023-05-10T01:53:13.609Z,102033.67
2023-05-10T01:54:19.821Z,102037.46
2023-05-10T01:55:25.151Z,102034.27
2023-05-10T01:56:28.531Z,102036.34
2023-05-10T01:57:33.939Z,102035.86
2023-05-10T01:58:38.435Z,102037.54
2023-05-10T01:59:43.414Z,102037.06
2023-05-10T02:00:46.633Z,102035.19
2023-05-10T02:01:50.321Z,102035.22
2023-05-10T02:02:53.255Z,102036.25
2023-05-10T02:03:57.248Z,102035.88
2023-05-10T02:05:00.280Z,102033.86
2023-05-10T02:06:03.552Z,102034.77
2023-05-10T02:07:07.169Z,102037.90
2023-05-10T02:08:10.245Z,102032.35
2023-05-10T02:09:13.369Z,102034.41
2023-05-10T02:10:16.461Z,102034.61
2023-05-10T02:11:21.856Z,102034.31
2023-05-10T02:12:24.438Z,102033.48
2023-05-10T02:13:28.847Z,102035.52
2023-05-10T02:14:34.681Z,102030.46
2023-05-10T02:15:38.998Z,102033.40
2023-05-10T02:16:41.680Z,102029.20
2023-05-10T02:17:44.530Z,102028.98
2023-05-10T02:18:47.361Z,102026.55
2023-05-10T02:19:49.957Z,102031.19
2023-05-10T02:20:54.014Z,102029.26
2023-05-10T02:21:57.547Z,102032.38
2023-05-10T02:23:00.268Z,102032.24
2023-05-10T02:24:03.590Z,102032.66
2023-05-10T02:25:07.203Z,102031.55
2023-05-10T02:26:09.906Z,102031.88
2023-05-10T02:27:12.757Z,102031.52
2023-05-10T02:28:15.849Z,102031.09
2023-05-10T02:29:19.009Z,102030.33
2023-05-10T02:30:22.017Z,102031.20
2023-05-10T02:31:25.893Z,102031.32
2023-05-10T02:32:29.507Z,102028.52
2023-05-10T02:33:33.905Z,102025.41
2023-05-10T02:34:36.548Z,102030.86
2023-05-10T02:35:39.448Z,102030.48
2023-05-10T02:36:42.494Z,102026.33
2023-05-10T02:37:45.977Z,102031.40
2023-05-10T02:38:49.296Z,102030.59
2023-05-10T02:39:54.363Z,102027.59
2023-05-10T02:40:57.002Z,102029.33
2023-05-10T02:41:59.298Z,102027.23
2023-05-10T02:43:02.858Z,102028.14
2023-05-10T02:44:08.243Z,102024.66
2023-05-10T02:45:15.067Z,102025.86
2023-05-10T02:46:17.809Z,102027.16
2023-05-10T02:47:19.944Z,102028.23
2023-05-10T02:48:21.566Z,102027.23
2023-05-10T02:49:23.566Z,102027.52
2023-05-10T02:50:28.406Z,102025.59
2023-05-10T02:51:34.037Z,102030.80
2023-05-10T02:52:40.686Z,102030.59
2023-05-10T02:53:44.795Z,102029.79
2023-05-10T02:54:51.019Z,102029.68
2023-05-10T02:55:57.436Z,102032.05
2023-05-10T02:57:03.212Z,102031.74
2023-05-10T02:58:04.728Z,102027.20
2023-05-10T02:59:06.276Z,102027.40
2023-05-10T03:00:08.838Z,102026.03
2023-05-10T03:01:10.408Z,102026.45
2023-05-10T03:02:15.105Z,102027.35
2023-05-10T03:03:16.812Z,102026.79
2023-05-10T03:04:18.535Z,102030.79
2023-05-10T03:05:20.797Z,102029.80
2023-05-10T03:06:22.468Z,102027.09
2023-05-10T03:07:24.212Z,102030.48
2023-05-10T03:08:26.367Z,102032.69
2023-05-10T03:09:29.193Z,102031.08
2023-05-10T03:10:32.919Z,102031.73
2023-05-10T03:11:49.842Z,102029.90
2023-05-10T03:13:17.100Z,102031.99
2023-05-10T03:14:40.823Z,102033.23
2023-05-10T03:16:09.784Z,102032.46
2023-05-10T03:17:17.617Z,102029.63
2023-05-10T03:18:23.893Z,102033.73
2023-05-10T03:19:33.717Z,102028.43
2023-05-10T03:20:38.039Z,102030.70
2023-05-10T03:21:48.435Z,102030.16
2023-05-10T03:23:25.531Z,102026.89
2023-05-10T03:24:28.822Z,102028.86
2023-05-10T03:25:32.839Z,102027.62
2023-05-10T03:26:35.718Z,102030.67
2023-05-10T03:27:44.522Z,102029.54
2023-05-10T03:28:48.727Z,102029.43
2023-05-10T03:29:51.546Z,102031.15
2023-05-10T03:30:54.815Z,102030.52
2023-05-10T03:31:57.903Z,102031.67
2023-05-10T03:33:05.851Z,102033.70
2023-05-10T03:34:07.414Z,102030.42
2023-05-10T03:35:10.254Z,102028.34
2023-05-10T03:36:12.065Z,102030.33
2023-05-10T03:37:13.887Z,102029.83
2023-05-10T03:38:15.693Z,102030.39
2023-05-10T03:39:17.154Z,102030.27
2023-05-10T03:40:19.509Z,102029.87
2023-05-10T03:41:21.742Z,102030.88
2023-05-10T03:42:23.607Z,102033.98
2023-05-10T03:43:25.030Z,102030.29
2023-05-10T03:44:27.295Z,102028.34
2023-05-10T03:45:29.543Z,102029.20
2023-05-10T03:46:31.116Z,102031.33
2023-05-10T03:47:32.929Z,102029.76
2023-05-10T03:48:35.219Z,102029.60
2023-05-10T03:49:36.649Z,102031.71
2023-05-10T03:50:38.437Z,102031.70
2023-05-10T03:51:39.869Z,102030.42
2023-05-10T03:52:41.480Z,102030.23
2023-05-10T03:53:43.186Z,102028.95
2023-05-10T03:54:44.610Z,102029.98
2023-05-10T03:55:46.858Z,102027.08
2023-05-10T03:56:48.298Z,102024.85
2023-05-10T03:57:50.695Z,102026.39
2023-05-10T03:58:52.259Z,102023.88
2023-05-10T03:59:53.679Z,102026.65
2023-05-10T04:00:55.944Z,102029.15
2023-05-10T04:01:57.491Z,102025.19
2023-05-10T04:02:59.204Z,102024.73
2023-05-10T04:04:00.989Z,102028.67
2023-05-10T04:05:03.045Z,102024.97
2023-05-10T04:06:05.673Z,102026.77
2023-05-10T04:07:08.292Z,102026.14
2023-05-10T04:08:09.929Z,102027.58
2023-05-10T04:09:11.384Z,102025.12
2023-05-10T04:10:14.667Z,102024.45
2023-05-10T04:11:16.334Z,102026.04
2023-05-10T04:12:17.767Z,102025.44
2023-05-10T04:13:19.408Z,102026.63
2023-05-10T04:14:21.039Z,102026.61
2023-05-10T04:15:22.536Z,102022.36
2023-05-10T04:16:23.990Z,102024.75
2023-05-10T04:17:25.536Z,102025.73
2023-05-10T04:18:27.030Z,102025.51
2023-05-10T04:19:31.621Z,102027.68
2023-05-10T04:20:33.632Z,102026.95
2023-05-10T04:21:35.020Z,102023.14
2023-05-10T04:22:36.567Z,102023.88
2023-05-10T04:23:38.259Z,102021.46
2023-05-10T04:24:40.021Z,102020.08
2023-05-10T04:25:41.483Z,102021.39
2023-05-10T04:26:42.903Z,102018.65
2023-05-10T04:27:44.306Z,102020.13
2023-05-10T04:28:45.920Z,102021.48
2023-05-10T04:29:47.440Z,102019.98
2023-05-10T04:30:48.934Z,102022.53
2023-05-10T04:31:51.210Z,102024.84
2023-05-10T04:32:52.800Z,102023.44
2023-05-10T04:33:54.559Z,102019.30
2023-05-10T04:34:56.101Z,102021.27
2023-05-10T04:35:57.629Z,102022.97
2023-05-10T04:36:59.059Z,102022.55
2023-05-10T04:38:00.443Z,102022.66
2023-05-10T04:39:03.367Z,102019.86
2023-05-10T04:40:06.540Z,102020.98
2023-05-10T04:41:09.751Z,102021.56
2023-05-10T04:42:11.684Z,102021.91
2023-05-10T04:43:13.432Z,102023.83
2023-05-10T04:44:14.963Z,102020.31
2023-05-10T04:45:16.925Z,102021.45
2023-05-10T04:46:19.130Z,102020.83
2023-05-10T04:47:20.622Z,102020.62
2023-05-10T04:48:22.034Z,102021.39
2023-05-10T04:49:23.920Z,102020.75
2023-05-10T04:50:25.444Z,102021.51
2023-05-10T04:51:26.808Z,102020.77
2023-05-10T04:52:28.169Z,102023.63
2023-05-10T04:53:29.967Z,102023.92
2023-05-10T04:54:33.693Z,102023.27
2023-05-10T04:55:36.028Z,102025.77
2023-05-10T04:56:37.681Z,102022.71
2023-05-10T04:57:39.210Z,102022.72
2023-05-10T04:58:40.711Z,102021.74
2023-05-10T04:59:42.976Z,102021.64
2023-05-10T05:00:44.535Z,102022.74
2023-05-10T05:01:46.078Z,102018.30
2023-05-10T05:02:47.653Z,102017.41
2023-05-10T05:03:49.300Z,102021.31
2023-05-10T05:04:51.350Z,102017.88
2023-05-10T05:05:52.897Z,102014.75
2023-05-10T05:06:54.281Z,102019.75
2023-05-10T05:07:55.765Z,102016.54
2023-05-10T05:08:57.213Z,102015.14
2023-05-10T05:09:58.907Z,102017.71
2023-05-10T05:11:00.528Z,102017.45
2023-05-10T05:12:01.925Z,102017.34
2023-05-10T05:13:03.468Z,102013.63
2023-05-10T05:14:05.020Z,102016.46
2023-05-10T05:15:09.770Z,102015.14
2023-05-10T05:16:11.626Z,102012.83
2023-05-10T05:17:13.139Z,102011.84
2023-05-10T05:18:14.546Z,102009.73
2023-05-10T05:19:16.089Z,102013.61
2023-05-10T05:20:19.424Z,102012.93
2023-05-10T05:21:21.860Z,102013.70
2023-05-10T05:22:28.391Z,102016.56
2023-05-10T05:23:30.452Z,102010.58
2023-05-10T05:24:36.774Z,102010.95
2023-05-10T05:25:38.314Z,102013.16
2023-05-10T05:26:39.890Z,102014.15
2023-05-10T05:27:41.535Z,102014.70
2023-05-10T05:28:43.144Z,102013.82
2023-05-10T05:29:44.513Z,102013.71
2023-05-10T05:30:46.629Z,102012.17
2023-05-10T05:31:48.063Z,102011.29
2023-05-10T05:32:49.507Z,102013.39
2023-05-10T05:33:51.041Z,102017.65
2023-05-10T05:34:52.588Z,102016.01
2023-05-10T05:35:54.184Z,102012.42
2023-05-10T05:36:55.677Z,102009.91
2023-05-10T05:37:57.065Z,102008.13
2023-05-10T05:38:58.718Z,102013.59
2023-05-10T05:40:02.057Z,102009.63
2023-05-10T05:41:03.881Z,102009.73
2023-05-10T05:42:05.428Z,102014.02
2023-05-10T05:43:06.854Z,102009.61
2023-05-10T05:44:08.561Z,102008.41
2023-05-10T05:45:13.248Z,102009.33
2023-05-10T05:46:15.033Z,102008.06
2023-05-10T05:47:16.548Z,102010.37
2023-05-10T05:48:18.087Z,102012.05
2023-05-10T05:49:19.490Z,102009.85
2023-05-10T05:50:20.900Z,102008.50
2023-05-10T05:51:22.595Z,102005.25
2023-05-10T05:52:24.013Z,102004.70
2023-05-10T05:53:25.686Z,102005.54
2023-05-10T05:54:28.192Z,102009.03
2023-05-10T05:55:31.733Z,102005.94
2023-05-10T05:56:33.601Z,102008.58
2023-05-10T05:57:34.995Z,102004.89
2023-05-10T05:58:36.388Z,102006.25
2023-05-10T05:59:42.201Z,102004.56
2023-05-10T06:00:43.612Z,102002.52
2023-05-10T06:01:45.934Z,102001.90
2023-05-10T06:02:48.271Z,101997.89
2023-05-10T06:03:51.881Z,102000.86
2023-05-10T06:04:54.843Z,102002.19
2023-05-10T06:05:56.353Z,101996.83
2023-05-10T06:06:57.895Z,101998.88
2023-05-10T06:08:00.919Z,102001.01
2023-05-10T06:09:02.879Z,101998.05
2023-05-10T06:10:04.954Z,101996.95
2023-05-10T06:11:06.358Z,101995.17
2023-05-10T06:12:07.890Z,101995.69
2023-05-10T06:13:10.176Z,101999.25
2023-05-10T06:14:11.913Z,101993.94
2023-05-10T06:15:13.567Z,101996.00
2023-05-10T06:16:15.329Z,101996.23
2023-05-10T06:17:16.994Z,101998.97
2023-05-10T06:18:18.446Z,101999.48
2023-05-10T06:19:19.835Z,101997.77
2023-05-10T06:20:21.291Z,101997.91
2023-05-10T06:21:22.790Z,101997.59
2023-05-10T06:22:24.160Z,101997.48
2023-05-10T06:23:25.803Z,101996.11
2023-05-10T06:24:27.822Z,101990.19
2023-05-10T06:25:29.531Z,101989.88
2023-05-10T06:26:30.992Z,101991.38
2023-05-10T06:27:32.626Z,101990.64
2023-05-10T06:28:34.171Z,101991.77
2023-05-10T06:29:35.547Z,101991.89
2023-05-10T06:30:37.322Z,101990.48
2023-05-10T06:31:38.722Z,101990.66
2023-05-10T06:32:40.298Z,101990.23
2023-05-10T06:33:41.746Z,101989.17
2023-05-10T06:34:44.019Z,101985.66
2023-05-10T06:35:45.554Z,101987.44
2023-05-10T06:36:47.011Z,101988.41
2023-05-10T06:37:48.912Z,101991.30
2023-05-10T06:38:51.507Z,101989.02
2023-05-10T06:39:52.904Z,101989.73
2023-05-10T06:40:54.393Z,101991.31
2023-05-10T06:41:55.814Z,101990.98
2023-05-10T06:42:57.455Z,101989.36
2023-05-10T06:43:58.973Z,101990.77
2023-05-10T06:45:00.563Z,101989.36
2023-05-10T06:46:02.032Z,101990.98
2023-05-10T06:47:03.512Z,101987.18
2023-05-10T06:48:05.155Z,101987.33
2023-05-10T06:49:06.555Z,101986.73
2023-05-10T06:50:09.115Z,101988.05
2023-05-10T06:51:10.816Z,101984.55
2023-05-10T06:52:12.584Z,101982.42
2023-05-10T06:53:14.130Z,101982.95
2023-05-10T06:54:15.552Z,101980.54
2023-05-10T06:55:17.211Z,101983.14
2023-05-10T06:56:21.670Z,101982.52
2023-05-10T06:57:31.085Z,101983.70
2023-05-10T06:58:33.147Z,101980.09
2023-05-10T06:59:34.974Z,101980.52
2023-05-10T07:00:40.777Z,101976.06
2023-05-10T07:01:42.834Z,101981.47
2023-05-10T07:02:44.803Z,101976.02
2023-05-10T07:03:46.599Z,101976.52
2023-05-10T07:04:48.563Z,101974.92
2023-05-10T07:05:50.045Z,101972.56
2023-05-10T07:06:51.422Z,101973.60
2023-05-10T07:07:52.784Z,101977.82
2023-05-10T07:08:54.259Z,101979.88
2023-05-10T07:09:56.916Z,101978.23
2023-05-10T07:11:03.774Z,101974.21
2023-05-10T07:12:05.810Z,101976.14
2023-05-10T07:13:08.387Z,101974.80
2023-05-10T07:14:10.183Z,101975.36
2023-05-10T07:15:11.766Z,101972.44
2023-05-10T07:16:13.650Z,101974.61
2023-05-10T07:17:15.387Z,101971.39
2023-05-10T07:18:16.902Z,101978.17
2023-05-10T07:19:18.943Z,101981.42
2023-05-10T07:20:21.131Z,101978.73
2023-05-10T07:21:24.567Z,101977.82
2023-05-10T07:22:26.406Z,101975.63
2023-05-10T07:23:28.036Z,101978.66
2023-05-10T07:24:30.399Z,101970.94
2023-05-10T07:25:32.072Z,101972.39
2023-05-10T07:26:33.445Z,101971.98
2023-05-10T07:27:35.259Z,101974.59
2023-05-10T07:28:37.946Z,101975.27
2023-05-10T07:29:39.570Z,101971.25
2023-05-10T07:30:41.796Z,101968.04
2023-05-10T07:31:43.283Z,101969.66
2023-05-10T07:32:45.487Z,101970.86
2023-05-10T07:33:46.986Z,101972.77
2023-05-10T07:34:48.732Z,101969.59
2023-05-10T07:35:50.663Z,101970.85
2023-05-10T07:36:52.884Z,101967.13
2023-05-10T07:37:54.275Z,101965.02
2023-05-10T07:38:57.750Z,101968.58
2023-05-10T07:39:59.442Z,101971.01
2023-05-10T07:41:01.699Z,101972.64
2023-05-10T07:42:03.358Z,101968.27
2023-05-10T07:43:04.762Z,101963.40
2023-05-10T07:44:06.567Z,101967.77
2023-05-10T07:45:08.872Z,101964.26
2023-05-10T07:46:11.393Z,101964.90
2023-05-10T07:47:12.875Z,101965.64
2023-05-10T07:48:14.324Z,101956.56
2023-05-10T07:49:16.841Z,101963.16
2023-05-10T07:50:18.645Z,101961.79
2023-05-10T07:51:20.119Z,101965.45
2023-05-10T07:52:22.824Z,101964.98
2023-05-10T07:53:26.364Z,101965.61
2023-05-10T07:54:28.167Z,101964.12
2023-05-10T07:55:30.036Z,101966.48
2023-05-10T07:56:32.905Z,101961.23
2023-05-10T07:57:34.912Z,101963.75
2023-05-10T07:58:36.419Z,101963.13
2023-05-10T07:59:37.841Z,101963.42
2023-05-10T08:00:39.934Z,101959.54
2023-05-10T08:01:42.739Z,101968.56
2023-05-10T08:02:44.401Z,101965.02
2023-05-10T08:03:46.227Z,101966.01
2023-05-10T08:04:47.713Z,101963.82
2023-05-10T08:05:49.308Z,101965.48
2023-05-10T08:06:50.817Z,101958.98
2023-05-10T08:07:52.245Z,101961.27
2023-05-10T08:08:54.505Z,101958.33
2023-05-10T08:09:56.035Z,101959.61
2023-05-10T08:10:57.710Z,101958.05
2023-05-10T08:12:00.379Z,101952.42
2023-05-10T08:13:01.838Z,101951.73
2023-05-10T08:14:03.394Z,101949.08
2023-05-10T08:15:05.478Z,101943.54
2023-05-10T08:16:07.688Z,101943.55
2023-05-10T08:17:09.296Z,101942.80
2023-05-10T08:18:10.714Z,101940.62
2023-05-10T08:19:12.167Z,101948.50
2023-05-10T08:20:16.991Z,101947.45
2023-05-10T08:21:18.778Z,101941.05
2023-05-10T08:22:20.532Z,101943.73
2023-05-10T08:23:21.950Z,101938.08
2023-05-10T08:24:23.485Z,101941.33
2023-05-10T08:25:24.970Z,101940.14
2023-05-10T08:26:27.018Z,101935.06
2023-05-10T08:27:28.448Z,101939.98
2023-05-10T08:28:29.920Z,101938.96
2023-05-10T08:29:38.616Z,101937.71
2023-05-10T08:30:48.020Z,101940.13
2023-05-10T08:31:49.764Z,101939.14
2023-05-10T08:32:51.471Z,101933.48
2023-05-10T08:33:53.092Z,101938.64
2023-05-10T08:34:54.589Z,101934.89
2023-05-10T08:35:56.126Z,101941.15
2023-05-10T08:36:57.700Z,101934.59
2023-05-10T08:37:59.208Z,101934.19
2023-05-10T08:39:00.732Z,101934.43
2023-05-10T08:40:03.353Z,101936.54
2023-05-10T08:41:06.475Z,101931.73
2023-05-10T08:42:09.502Z,101937.63
2023-05-10T08:43:13.114Z,101934.17
2023-05-10T08:44:16.167Z,101931.98
2023-05-10T08:45:20.360Z,101933.41
2023-05-10T08:46:23.247Z,101928.37
2023-05-10T08:47:25.852Z,101923.09
2023-05-10T08:48:30.826Z,101928.55
2023-05-10T08:49:33.359Z,101929.15
2023-05-10T08:50:37.167Z,101926.26
2023-05-10T08:51:44.352Z,101923.98
2023-05-10T08:52:49.474Z,101921.89
2023-05-10T08:53:51.434Z,101922.20
2023-05-10T08:54:53.419Z,101926.95
2023-05-10T08:55:55.937Z,101922.23
2023-05-10T08:56:57.519Z,101924.42
2023-05-10T08:57:59.910Z,101921.16
2023-05-10T08:59:02.082Z,101919.95
2023-05-10T09:00:04.417Z,101921.30
2023-05-10T09:01:06.230Z,101926.67
2023-05-10T09:02:10.118Z,101926.60
2023-05-10T09:03:13.307Z,101925.71
2023-05-10T09:04:14.782Z,101922.45
2023-05-10T09:05:18.005Z,101923.58
2023-05-10T09:06:20.123Z,101931.95
2023-05-10T09:07:21.736Z,101922.33
2023-05-10T09:08:27.872Z,101926.67
2023-05-10T09:09:29.562Z,101928.90
2023-05-10T09:10:31.974Z,101926.89
2023-05-10T09:11:33.858Z,101926.23
2023-05-10T09:12:36.240Z,101929.20
2023-05-10T09:13:38.263Z,101924.86
2023-05-10T09:14:40.404Z,101924.12
2023-05-10T09:15:42.125Z,101919.38
2023-05-10T09:16:43.759Z,101917.38
2023-05-10T09:17:46.093Z,101918.44
2023-05-10T09:18:47.682Z,101917.19
2023-05-10T09:19:49.211Z,101919.45
2023-05-10T09:20:50.706Z,101915.89
2023-05-10T09:21:52.238Z,101906.81
2023-05-10T09:22:53.681Z,101910.71
2023-05-10T09:23:55.959Z,101904.66
2023-05-10T09:25:12.297Z,101912.53
2023-05-10T09:26:13.684Z,101908.41
2023-05-10T09:27:15.132Z,101907.42
2023-05-10T09:28:16.512Z,101907.05
2023-05-10T09:29:18.201Z,101903.12
2023-05-10T09:30:31.144Z,101908.57
2023-05-10T09:31:54.880Z,101912.73
2023-05-10T09:32:58.480Z,101908.08
2023-05-10T09:33:59.951Z,101920.83
2023-05-10T09:35:10.590Z,101914.56
2023-05-10T09:36:12.904Z,101908.41
2023-05-10T09:37:14.627Z,101909.92
2023-05-10T09:38:16.724Z,101909.08
2023-05-10T09:39:18.342Z,101899.48
2023-05-10T09:40:25.018Z,101900.20
2023-05-10T09:41:28.401Z,101910.10
2023-05-10T09:42:30.021Z,101907.98
2023-05-10T09:43:38.524Z,101902.22
2023-05-10T09:44:41.246Z,101896.30
2023-05-10T09:45:42.897Z,101900.14
2023-05-10T09:46:49.495Z,101898.76
2023-05-10T09:47:51.079Z,101904.20
2023-05-10T09:48:52.532Z,101909.97
2023-05-10T09:49:58.071Z,101910.50
2023-05-10T09:50:59.823Z,101901.59
2023-05-10T09:52:01.869Z,101902.95
2023-05-10T09:53:04.005Z,101906.45
2023-05-10T09:54:16.887Z,101904.08
2023-05-10T09:55:23.412Z,101917.27
2023-05-10T09:56:36.034Z,101907.15
2023-05-10T09:57:37.988Z,101908.92
2023-05-10T09:58:39.450Z,101905.35
2023-05-10T09:59:43.310Z,101909.58
2023-05-10T10:00:48.002Z,101904.29
2023-05-10T10:01:56.869Z,101899.86
2023-05-10T10:02:59.959Z,101898.27
2023-05-10T10:04:06.738Z,101893.10
2023-05-10T10:05:09.148Z,101896.67
2023-05-10T10:06:18.902Z,101896.23
2023-05-10T10:07:28.954Z,101900.02
2023-05-10T10:08:30.418Z,101890.19
2023-05-10T10:09:33.316Z,101895.02
2023-05-10T10:10:34.959Z,101897.73
2023-05-10T10:11:38.365Z,101890.12
2023-05-10T10:12:41.797Z,101889.46
2023-05-10T10:13:43.519Z,101888.83
2023-05-10T10:14:46.294Z,101894.20
2023-05-10T10:15:51.277Z,101885.49
2023-05-10T10:17:06.503Z,101883.27
2023-05-10T10:18:13.835Z,101877.88
2023-05-10T10:19:15.694Z,101871.62
2023-05-10T10:20:19.581Z,101878.31
2023-05-10T10:21:22.634Z,101877.20
2023-05-10T10:22:24.076Z,101877.50
2023-05-10T10:23:25.962Z,101876.23
2023-05-10T10:24:27.375Z,101870.15
2023-05-10T10:25:29.204Z,101876.91
2023-05-10T10:26:30.934Z,101872.23
2023-05-10T10:27:57.010Z,101871.05
2023-05-10T10:29:35.022Z,101868.81
2023-05-10T10:30:47.412Z,101878.05
2023-05-10T10:31:56.512Z,101868.31
2023-05-10T10:33:32.922Z,101864.52
2023-05-10T10:34:34.829Z,101865.38
2023-05-10T10:35:37.128Z,101854.39
2023-05-10T10:36:46.519Z,101864.69
2023-05-10T10:37:51.433Z,101862.30
2023-05-10T10:39:01.496Z,101852.10
2023-05-10T10:40:22.789Z,101852.88
2023-05-10T10:41:33.115Z,101856.86
2023-05-10T10:42:50.113Z,101860.34
2023-05-10T10:44:27.060Z,101859.94
2023-05-10T10:45:29.026Z,101851.56
2023-05-10T10:46:30.805Z,101852.83
2023-05-10T10:47:33.525Z,101852.78
2023-05-10T10:48:36.094Z,101847.94
2023-05-10T10:50:00.883Z,101845.40
2023-05-10T10:51:03.336Z,101845.40
2023-05-10T10:52:24.263Z,101842.92
2023-05-10T10:53:29.814Z,101842.11
2023-05-10T10:54:32.939Z,101842.98
2023-05-10T10:55:34.454Z,101844.17
2023-05-10T10:56:37.176Z,101833.77
2023-05-10T10:57:48.058Z,101833.34
2023-05-10T10:58:53.920Z,101836.65
2023-05-10T11:00:31.604Z,101838.21
2023-05-10T11:01:35.566Z,101834.30
2023-05-10T11:02:46.239Z,101837.40
2023-05-10T11:03:59.575Z,101826.38
2023-05-10T11:05:37.512Z,101828.73
2023-05-10T11:06:40.527Z,101827.56
2023-05-10T11:07:55.849Z,101824.19
2023-05-10T11:08:57.786Z,101826.45
2023-05-10T11:10:04.923Z,101825.66
2023-05-10T11:11:07.432Z,101834.79
2023-05-10T11:12:09.625Z,101829.87
2023-05-10T11:13:11.171Z,101828.70
2023-05-10T11:14:12.710Z,101826.29
2023-05-10T11:15:14.584Z,101828.34
2023-05-10T11:16:17.679Z,101832.79
2023-05-10T11:17:29.466Z,101834.88
2023-05-10T11:18:31.066Z,101840.98
2023-05-10T11:19:32.557Z,101832.89
2023-05-10T11:20:40.187Z,101829.57
2023-05-10T11:22:13.751Z,101825.95
2023-05-10T11:23:16.241Z,101824.66
2023-05-10T11:24:28.330Z,101831.07
2023-05-10T11:25:29.814Z,101830.73
2023-05-10T11:26:34.073Z,101828.29
2023-05-10T11:27:38.173Z,101826.05
2023-05-10T11:28:48.462Z,101822.76
2023-05-10T11:29:52.689Z,101818.66
2023-05-10T11:30:54.915Z,101819.06
2023-05-10T11:32:00.187Z,101822.90
2023-05-10T11:33:01.805Z,101827.04
2023-05-10T11:34:03.369Z,101823.02
2023-05-10T11:35:08.822Z,101823.08
2023-05-10T11:36:16.060Z,101829.12
2023-05-10T11:37:18.611Z,101819.61
2023-05-10T11:38:20.426Z,101822.29
2023-05-10T11:39:26.080Z,101814.50
2023-05-10T11:40:27.684Z,101812.73
2023-05-10T11:41:31.068Z,101824.19
2023-05-10T11:42:32.549Z,101813.19
2023-05-10T11:43:34.126Z,101809.63
2023-05-10T11:44:35.871Z,101809.60
2023-05-10T11:45:37.937Z,101812.12
2023-05-10T11:46:39.633Z,101818.17
2023-05-10T11:47:43.722Z,101818.04
2023-05-10T11:48:45.350Z,101818.88
2023-05-10T11:49:48.156Z,101820.94
2023-05-10T11:50:50.430Z,101818.56
2023-05-10T11:51:51.858Z,101816.48
2023-05-10T11:52:54.828Z,101809.38
2023-05-10T11:53:57.353Z,101806.52
2023-05-10T11:54:58.823Z,101805.77
2023-05-10T11:56:08.183Z,101797.80
2023-05-10T11:57:10.052Z,101799.25
2023-05-10T11:58:11.781Z,101802.88
2023-05-10T11:59:15.226Z,101805.55
2023-05-10T12:00:17.055Z,101808.29
2023-05-10T12:01:18.791Z,101811.59
2023-05-10T12:02:20.628Z,101812.75
2023-05-10T12:03:22.574Z,101808.42
2023-05-10T12:04:25.218Z,101806.99
2023-05-10T12:05:26.816Z,101814.33
2023-05-10T12:06:31.263Z,101813.15
2023-05-10T12:07:32.791Z,101812.70
2023-05-10T12:08:34.468Z,101806.36
2023-05-10T12:09:43.871Z,101813.75
2023-05-10T12:10:46.020Z,101809.38
2023-05-10T12:11:47.718Z,101811.13